createdAt,value
2022-12-31T00:01:39.990Z,8.00
2022-12-31T00:04:08.674Z,6.90
2022-12-31T00:06:38.224Z,7.20
2022-12-31T00:09:08.466Z,7.10
2022-12-31T00:11:38.496Z,6.70
2022-12-31T00:14:07.649Z,6.40
2022-12-31T00:16:41.950Z,5.90
2022-12-31T00:19:12.411Z,5.30
2022-12-31T00:24:13.026Z,4.90
2022-12-31T00:26:42.361Z,5.40
2022-12-31T00:29:11.073Z,5.00
2022-12-31T00:31:39.916Z,4.40
2022-12-31T00:34:10.307Z,4.60
2022-12-31T00:36:40.091Z,4.50
2022-12-31T00:39:08.918Z,4.80
2022-12-31T00:41:38.290Z,4.80
2022-12-31T00:44:07.133Z,4.10
2022-12-31T00:49:07.649Z,4.30
2022-12-31T00:51:36.576Z,4.50
2022-12-31T00:54:05.178Z,3.70
2022-12-31T00:56:34.257Z,3.50
2022-12-31T00:59:02.880Z,4.10
2022-12-31T01:01:37.412Z,3.90
2022-12-31T01:04:12.041Z,3.60
2022-12-31T01:06:41.824Z,3.40
2022-12-31T01:11:41.155Z,3.40
2022-12-31T01:14:13.662Z,3.50
2022-12-31T01:16:50.891Z,3.70
2022-12-31T01:19:22.455Z,3.70
2022-12-31T01:21:51.976Z,3.60
2022-12-31T01:24:21.471Z,3.60
2022-12-31T01:26:51.925Z,3.80
2022-12-31T01:29:21.535Z,3.90
2022-12-31T01:31:50.237Z,3.50
2022-12-31T01:34:18.903Z,3.80
2022-12-31T01:36:48.335Z,4.10
2022-12-31T01:39:16.897Z,4.10
2022-12-31T01:41:47.425Z,5.60
2022-12-31T01:44:25.542Z,4.90
2022-12-31T01:46:58.671Z,4.40
2022-12-31T01:49:36.664Z,4.40
2022-12-31T01:52:16.223Z,4.90
2022-12-31T01:54:53.063Z,4.10
2022-12-31T01:57:24.705Z,4.20
2022-12-31T01:59:56.451Z,4.00
2022-12-31T02:02:26.033Z,4.50
2022-12-31T02:05:00.266Z,4.90
2022-12-31T02:07:29.781Z,8.80
2022-12-31T02:09:59.575Z,4.40
2022-12-31T02:12:28.229Z,4.90
2022-12-31T02:14:57.128Z,5.70
2022-12-31T02:17:56.465Z,5.30
2022-12-31T02:21:29.257Z,5.00
2022-12-31T02:24:37.056Z,5.10
2022-12-31T02:27:34.386Z,5.10
2022-12-31T02:30:09.370Z,5.50
2022-12-31T02:32:46.906Z,5.50
2022-12-31T02:35:35.077Z,6.60
2022-12-31T02:38:10.022Z,5.50
2022-12-31T02:40:39.782Z,5.70
2022-12-31T02:43:08.395Z,5.00
2022-12-31T02:45:51.153Z,5.90
2022-12-31T02:48:37.410Z,5.80
2022-12-31T02:51:12.278Z,5.80
2022-12-31T02:54:03.011Z,5.50
2022-12-31T02:56:49.999Z,6.20
2022-12-31T02:59:40.766Z,6.70
2022-12-31T03:02:16.616Z,6.30
2022-12-31T03:04:57.595Z,5.50
2022-12-31T03:07:29.214Z,5.50
2022-12-31T03:09:59.669Z,5.20
2022-12-31T03:12:50.336Z,5.00
2022-12-31T03:15:26.591Z,5.30
2022-12-31T03:17:55.330Z,4.90
2022-12-31T03:20:51.121Z,5.50
2022-12-31T03:23:24.517Z,5.70
2022-12-31T03:25:55.250Z,4.50
2022-12-31T03:28:26.833Z,4.70
2022-12-31T03:30:58.631Z,4.50
2022-12-31T03:33:31.357Z,4.60
2022-12-31T03:36:03.904Z,4.60
2022-12-31T03:38:32.721Z,5.10
2022-12-31T03:41:01.892Z,4.60
2022-12-31T03:43:30.724Z,4.60
2022-12-31T03:46:01.826Z,5.40
2022-12-31T03:48:31.289Z,4.90
2022-12-31T03:50:59.900Z,4.30
2022-12-31T03:53:28.508Z,4.20
2022-12-31T03:55:57.852Z,4.10
2022-12-31T03:58:26.561Z,3.80
2022-12-31T04:00:55.266Z,3.70
2022-12-31T04:03:24.634Z,3.80
2022-12-31T04:05:56.485Z,4.20
2022-12-31T04:08:25.822Z,4.20
2022-12-31T04:10:54.811Z,4.20
2022-12-31T04:13:23.467Z,4.20
2022-12-31T04:15:52.732Z,4.40
2022-12-31T04:18:21.490Z,4.40
2022-12-31T04:20:50.087Z,3.80
2022-12-31T04:23:19.273Z,4.00
2022-12-31T04:25:47.814Z,3.70
2022-12-31T04:28:16.448Z,3.30
2022-12-31T04:30:45.868Z,4.00
2022-12-31T04:33:14.732Z,3.80
2022-12-31T04:35:43.378Z,5.50
2022-12-31T04:38:12.328Z,5.80
2022-12-31T04:41:01.208Z,5.30
2022-12-31T04:43:30.889Z,4.10
2022-12-31T04:45:59.833Z,11.40
2022-12-31T04:48:28.774Z,8.80
2022-12-31T04:50:57.703Z,5.90
2022-12-31T04:53:26.337Z,6.90
2022-12-31T04:55:56.188Z,7.20
2022-12-31T04:58:25.481Z,11.70
2022-12-31T05:00:55.684Z,7.60
2022-12-31T05:03:26.613Z,8.50
2022-12-31T05:06:01.866Z,7.60
2022-12-31T05:08:31.264Z,5.80
2022-12-31T05:11:00.971Z,5.30
2022-12-31T05:13:33.371Z,5.20
2022-12-31T05:16:03.813Z,7.20
2022-12-31T05:18:33.172Z,4.10
2022-12-31T05:21:02.130Z,4.80
2022-12-31T05:23:31.422Z,5.20
2022-12-31T05:26:00.744Z,5.60
2022-12-31T05:28:29.375Z,4.00
2022-12-31T05:30:58.823Z,5.10
2022-12-31T05:33:27.445Z,4.40
2022-12-31T05:35:58.832Z,6.70
2022-12-31T05:38:28.601Z,6.30
2022-12-31T05:41:02.690Z,6.90
2022-12-31T05:43:32.515Z,6.60
2022-12-31T05:46:02.611Z,6.60
2022-12-31T05:51:00.694Z,7.70
2022-12-31T05:53:29.367Z,7.80
2022-12-31T05:55:58.084Z,6.60
2022-12-31T05:58:28.680Z,6.40
2022-12-31T06:00:57.440Z,5.80
2022-12-31T06:03:26.109Z,4.30
2022-12-31T06:05:55.134Z,4.50
2022-12-31T06:08:24.285Z,4.60
2022-12-31T06:10:55.256Z,5.00
2022-12-31T06:13:24.756Z,4.70
2022-12-31T06:15:53.395Z,4.40
2022-12-31T06:18:22.093Z,4.80
2022-12-31T06:20:51.371Z,4.60
2022-12-31T06:23:20.404Z,5.30
2022-12-31T06:25:49.160Z,5.90
2022-12-31T06:28:20.506Z,6.20
2022-12-31T06:30:49.575Z,7.00
2022-12-31T06:33:20.036Z,6.10
2022-12-31T06:35:48.627Z,5.70
2022-12-31T06:38:17.554Z,5.40
2022-12-31T06:40:46.458Z,4.10
2022-12-31T06:43:14.974Z,4.10
2022-12-31T06:45:43.814Z,4.00
2022-12-31T06:48:13.152Z,3.80
2022-12-31T06:50:42.185Z,3.70
2022-12-31T06:53:10.826Z,3.50
2022-12-31T06:55:40.000Z,3.50
2022-12-31T06:58:13.682Z,2.80
2022-12-31T07:01:09.309Z,3.20
2022-12-31T07:03:46.877Z,3.90
2022-12-31T07:06:22.915Z,2.70
2022-12-31T07:09:21.444Z,2.60
2022-12-31T07:12:09.227Z,2.90
2022-12-31T07:14:49.884Z,4.60
2022-12-31T07:17:44.254Z,1.90
2022-12-31T07:20:16.365Z,2.10
2022-12-31T07:22:47.354Z,1.50
2022-12-31T07:25:19.948Z,1.70
2022-12-31T07:27:51.756Z,1.50
2022-12-31T07:30:27.230Z,1.60
2022-12-31T07:33:14.818Z,1.30
2022-12-31T07:36:09.528Z,1.50
2022-12-31T07:39:00.418Z,1.50
2022-12-31T07:41:32.297Z,1.70
2022-12-31T07:44:16.425Z,1.30
2022-12-31T07:47:00.082Z,2.10
2022-12-31T07:49:31.011Z,2.90
2022-12-31T07:52:00.334Z,3.50
2022-12-31T07:54:29.140Z,2.70
2022-12-31T07:56:58.181Z,4.80
2022-12-31T07:59:41.833Z,2.70
2022-12-31T08:02:26.365Z,4.10
2022-12-31T08:05:07.270Z,3.60
2022-12-31T08:07:48.403Z,3.30
2022-12-31T08:10:29.531Z,2.60
2022-12-31T08:13:03.370Z,2.40
2022-12-31T08:15:32.911Z,3.60
2022-12-31T08:18:01.804Z,3.30
2022-12-31T08:20:32.889Z,2.70
2022-12-31T08:23:28.500Z,3.20
2022-12-31T08:26:16.021Z,3.10
2022-12-31T08:28:53.396Z,4.40
2022-12-31T08:31:28.246Z,2.10
2022-12-31T08:34:24.092Z,3.00
2022-12-31T08:37:06.887Z,2.70
2022-12-31T08:39:45.741Z,4.00
2022-12-31T08:46:54.639Z,2.20
2022-12-31T08:49:53.400Z,1.40
2022-12-31T08:52:26.781Z,1.40
2022-12-31T08:54:55.852Z,2.20
2022-12-31T08:57:40.083Z,3.20
2022-12-31T09:00:15.456Z,2.40
2022-12-31T09:03:02.949Z,3.30
2022-12-31T09:05:47.714Z,3.20
2022-12-31T09:08:51.453Z,3.80
2022-12-31T09:11:34.944Z,4.30
2022-12-31T09:14:49.953Z,4.00
2022-12-31T09:17:40.655Z,4.50
2022-12-31T09:20:46.156Z,4.30
2022-12-31T09:23:15.151Z,4.70
2022-12-31T09:25:58.375Z,4.10
2022-12-31T09:28:45.241Z,3.80
2022-12-31T09:31:27.133Z,3.30
2022-12-31T09:34:37.989Z,2.60
2022-12-31T09:37:21.325Z,3.50
2022-12-31T09:39:51.441Z,5.70
2022-12-31T09:42:29.226Z,5.40
2022-12-31T09:45:26.928Z,6.70
2022-12-31T09:48:14.580Z,4.40
2022-12-31T09:51:05.807Z,3.90
2022-12-31T09:54:00.089Z,3.50
2022-12-31T09:56:57.111Z,5.30
2022-12-31T09:59:44.426Z,5.10
2022-12-31T10:02:20.812Z,4.60
2022-12-31T10:05:00.584Z,3.50
2022-12-31T10:07:29.536Z,4.70
2022-12-31T10:10:10.084Z,3.30
2022-12-31T10:13:15.878Z,5.80
2022-12-31T10:16:08.116Z,4.90
2022-12-31T10:19:06.569Z,4.30
2022-12-31T10:21:56.883Z,4.30
2022-12-31T10:24:46.087Z,3.50
2022-12-31T10:27:40.531Z,4.90
2022-12-31T10:30:21.774Z,3.30
2022-12-31T10:32:57.596Z,3.30
2022-12-31T10:35:40.418Z,3.20
2022-12-31T10:38:38.052Z,3.00
2022-12-31T10:41:19.419Z,3.30
2022-12-31T10:43:57.051Z,3.50
2022-12-31T10:46:50.718Z,2.50
2022-12-31T10:49:50.698Z,3.40
2022-12-31T10:52:28.410Z,3.70
2022-12-31T10:55:34.497Z,5.20
2022-12-31T10:58:25.511Z,4.30
2022-12-31T11:01:01.059Z,4.90
2022-12-31T11:04:01.725Z,5.70
2022-12-31T11:06:51.747Z,4.50
2022-12-31T11:09:44.877Z,4.10
2022-12-31T11:12:41.437Z,3.70
2022-12-31T11:15:22.490Z,5.50
2022-12-31T11:18:13.483Z,5.00
2022-12-31T11:20:58.126Z,7.90
2022-12-31T11:23:46.832Z,8.50
2022-12-31T11:26:18.747Z,4.40
2022-12-31T11:29:18.419Z,6.30
2022-12-31T11:32:04.348Z,4.30
2022-12-31T11:34:49.714Z,4.50
2022-12-31T11:37:33.764Z,5.00
2022-12-31T11:40:08.943Z,7.40
2022-12-31T11:42:55.629Z,7.50
2022-12-31T11:45:50.245Z,6.10
2022-12-31T11:48:32.572Z,5.20
2022-12-31T11:51:29.054Z,4.40
2022-12-31T11:54:34.051Z,4.30
2022-12-31T11:57:08.864Z,5.20
2022-12-31T11:59:38.489Z,4.90
2022-12-31T12:02:37.614Z,5.80
2022-12-31T12:05:11.101Z,8.70
2022-12-31T12:07:40.291Z,4.80
2022-12-31T12:10:22.767Z,5.50
2022-12-31T12:12:53.426Z,5.20
2022-12-31T12:15:30.180Z,5.00
2022-12-31T12:18:05.319Z,5.30
2022-12-31T12:20:37.901Z,5.00
2022-12-31T12:23:26.672Z,6.10
2022-12-31T12:25:55.792Z,5.90
2022-12-31T12:28:26.915Z,5.80
2022-12-31T12:31:04.617Z,8.30
2022-12-31T12:33:46.870Z,5.30
2022-12-31T12:36:18.470Z,6.90
2022-12-31T12:38:47.937Z,6.30
2022-12-31T12:41:25.613Z,7.80
2022-12-31T12:44:13.860Z,10.50
2022-12-31T12:46:48.996Z,13.50
2022-12-31T12:49:31.944Z,6.30
2022-12-31T12:52:16.099Z,9.10
2022-12-31T12:55:12.132Z,5.50
2022-12-31T12:58:25.800Z,4.30
2022-12-31T13:01:09.861Z,5.90
2022-12-31T13:04:34.061Z,5.30
2022-12-31T13:07:18.093Z,3.70
2022-12-31T13:10:03.184Z,4.80
2022-12-31T13:15:53.876Z,6.00
2022-12-31T13:18:52.917Z,10.30
2022-12-31T13:21:24.818Z,8.10
2022-12-31T13:24:32.551Z,5.60
2022-12-31T13:27:29.293Z,9.40
2022-12-31T13:30:03.112Z,9.70
2022-12-31T13:32:42.913Z,7.90
2022-12-31T13:38:12.888Z,8.50
2022-12-31T13:41:09.933Z,6.10
2022-12-31T13:44:14.211Z,7.80
2022-12-31T13:47:04.775Z,7.30
2022-12-31T13:49:36.510Z,7.60
2022-12-31T13:52:11.401Z,11.60
2022-12-31T13:54:51.999Z,8.20
2022-12-31T13:57:47.726Z,6.80
2022-12-31T14:00:25.721Z,7.10
2022-12-31T14:03:20.031Z,5.60
2022-12-31T14:06:04.046Z,10.90
2022-12-31T14:08:33.105Z,7.80
2022-12-31T14:11:23.307Z,17.40
2022-12-31T14:14:28.323Z,5.90
2022-12-31T14:17:17.837Z,5.60
2022-12-31T14:19:46.554Z,10.10
2022-12-31T14:22:33.135Z,10.30
2022-12-31T14:25:06.617Z,12.90
2022-12-31T14:27:43.661Z,10.30
2022-12-31T14:30:21.047Z,7.20
2022-12-31T14:33:08.739Z,6.50
2022-12-31T14:36:08.262Z,4.90
2022-12-31T14:38:57.923Z,7.30
2022-12-31T14:41:52.949Z,11.40
2022-12-31T14:44:25.131Z,19.10
2022-12-31T14:47:16.470Z,30.10
2022-12-31T14:50:05.626Z,21.40
2022-12-31T14:52:48.013Z,8.30
2022-12-31T14:55:23.229Z,6.90
2022-12-31T14:58:26.538Z,7.10
2022-12-31T15:00:53.963Z,9.10
2022-12-31T15:03:26.979Z,28.10
2022-12-31T15:06:28.843Z,19.30
2022-12-31T15:09:35.467Z,17.30
2022-12-31T15:12:19.897Z,12.50
2022-12-31T15:15:05.592Z,12.80
2022-12-31T15:17:40.338Z,22.70
2022-12-31T15:20:45.157Z,16.80
2022-12-31T15:23:25.912Z,10.00
2022-12-31T15:26:06.144Z,12.50
2022-12-31T15:28:38.827Z,10.70
2022-12-31T15:31:17.469Z,9.60
2022-12-31T15:34:39.973Z,11.10
2022-12-31T15:37:30.602Z,20.60
2022-12-31T15:42:52.890Z,11.80
2022-12-31T15:45:41.066Z,9.30
2022-12-31T15:48:31.791Z,13.10
2022-12-31T15:51:05.209Z,11.30
2022-12-31T15:53:43.434Z,11.40
2022-12-31T15:56:20.000Z,12.20
2022-12-31T15:58:55.037Z,23.20
2022-12-31T16:01:30.320Z,24.00
2022-12-31T16:04:14.858Z,13.10
2022-12-31T16:06:50.319Z,11.60
2022-12-31T16:09:31.842Z,6.90
2022-12-31T16:12:02.601Z,5.70
2022-12-31T16:14:45.539Z,5.50
2022-12-31T16:17:29.687Z,9.10
2022-12-31T16:20:00.146Z,7.50
2022-12-31T16:27:51.949Z,8.90
2022-12-31T16:30:22.529Z,15.30
2022-12-31T16:32:52.744Z,23.40
2022-12-31T16:35:23.621Z,9.80
2022-12-31T16:38:11.551Z,8.00
2022-12-31T16:41:04.345Z,8.70
2022-12-31T16:43:39.104Z,14.30
2022-12-31T16:46:30.677Z,22.00
2022-12-31T16:49:04.012Z,29.20
2022-12-31T16:51:37.648Z,32.10
2022-12-31T16:54:35.662Z,14.10
2022-12-31T16:57:06.503Z,14.20
2022-12-31T16:59:40.421Z,14.00
2022-12-31T17:02:20.789Z,17.40
2022-12-31T17:04:56.040Z,9.40
2022-12-31T17:07:31.481Z,9.20
2022-12-31T17:10:03.504Z,27.90
2022-12-31T17:12:53.013Z,12.70
2022-12-31T17:15:41.907Z,31.90
2022-12-31T17:18:21.020Z,22.80
2022-12-31T17:20:52.805Z,16.30
2022-12-31T17:23:32.181Z,12.90
2022-12-31T17:26:11.632Z,18.20
2022-12-31T17:28:46.963Z,15.60
2022-12-31T17:31:36.407Z,11.30
2022-12-31T17:34:14.164Z,11.50
2022-12-31T17:37:19.888Z,13.30
2022-12-31T17:39:50.956Z,7.30
2022-12-31T17:42:38.623Z,12.90
2022-12-31T17:45:21.335Z,12.80
2022-12-31T17:47:54.092Z,7.00
2022-12-31T17:50:26.109Z,6.20
2022-12-31T17:53:22.635Z,6.10
2022-12-31T17:55:54.544Z,29.40
2022-12-31T17:58:29.769Z,9.00
2022-12-31T18:00:59.788Z,6.90
2022-12-31T18:03:51.250Z,8.00
2022-12-31T18:06:56.561Z,6.70
2022-12-31T18:09:45.695Z,6.10
2022-12-31T18:12:35.732Z,6.70
2022-12-31T18:15:36.635Z,6.20
2022-12-31T18:18:32.161Z,6.70
2022-12-31T18:21:41.914Z,9.60
2022-12-31T18:24:27.238Z,7.60
2022-12-31T18:27:32.989Z,7.70
2022-12-31T18:30:27.656Z,8.50
2022-12-31T18:33:28.262Z,6.70
2022-12-31T18:36:22.783Z,7.90
2022-12-31T18:39:21.771Z,8.50
2022-12-31T18:41:57.751Z,8.70
2022-12-31T18:44:27.179Z,7.00
2022-12-31T18:46:56.315Z,10.20
2022-12-31T18:49:25.007Z,7.40
2022-12-31T18:51:55.507Z,7.70
2022-12-31T18:56:56.891Z,8.30
2022-12-31T18:59:26.328Z,7.50
2022-12-31T19:01:55.167Z,5.20
2022-12-31T19:04:28.111Z,4.40
2022-12-31T19:06:58.029Z,6.00
2022-12-31T19:12:15.997Z,3.80
2022-12-31T19:14:45.811Z,5.20
2022-12-31T19:17:14.808Z,6.10
2022-12-31T19:19:44.145Z,3.60
2022-12-31T19:22:15.931Z,8.80
2022-12-31T19:24:45.409Z,9.60
2022-12-31T19:27:14.411Z,14.20
2022-12-31T19:29:43.163Z,33.10
2022-12-31T19:32:12.855Z,17.50
2022-12-31T19:34:44.385Z,13.50
2022-12-31T19:37:16.332Z,10.80
2022-12-31T19:39:47.761Z,11.40
2022-12-31T19:42:17.266Z,17.60
2022-12-31T19:44:46.135Z,12.00
2022-12-31T19:47:17.507Z,6.90
2022-12-31T19:49:46.230Z,4.90
2022-12-31T19:52:15.049Z,4.30
2022-12-31T19:54:44.016Z,4.20
2022-12-31T19:57:12.668Z,5.00
2022-12-31T19:59:41.561Z,4.50
2022-12-31T20:02:10.777Z,5.30
2022-12-31T20:04:39.574Z,6.20
2022-12-31T20:07:08.483Z,4.70
2022-12-31T20:09:37.492Z,6.30
2022-12-31T20:12:06.462Z,34.20
2022-12-31T20:14:35.431Z,4.70
2022-12-31T20:17:04.572Z,5.10
2022-12-31T20:19:33.250Z,8.90
2022-12-31T20:22:02.940Z,22.90
2022-12-31T20:24:32.283Z,25.20
2022-12-31T20:27:00.975Z,18.10
2022-12-31T20:29:30.008Z,26.80
2022-12-31T20:31:59.772Z,13.40
2022-12-31T20:34:29.141Z,7.60
2022-12-31T20:36:57.969Z,5.90
2022-12-31T20:39:27.316Z,7.10
2022-12-31T20:41:55.935Z,8.10
2022-12-31T20:44:24.453Z,4.30
2022-12-31T20:46:53.736Z,4.20
2022-12-31T20:49:37.533Z,4.80
2022-12-31T20:52:11.839Z,5.60
2022-12-31T20:54:40.438Z,9.60
2022-12-31T20:57:08.985Z,5.30
2022-12-31T20:59:39.033Z,5.60
2022-12-31T21:02:20.932Z,5.60
2022-12-31T21:05:04.125Z,4.30
2022-12-31T21:07:36.221Z,4.70
2022-12-31T21:10:06.423Z,4.10
2022-12-31T21:12:44.710Z,4.10
2022-12-31T21:15:14.321Z,3.80
2022-12-31T21:17:48.532Z,4.80
2022-12-31T21:20:18.410Z,18.40
2022-12-31T21:22:49.927Z,11.70
2022-12-31T21:25:19.396Z,20.80
2022-12-31T21:27:47.928Z,9.80
2022-12-31T21:30:18.708Z,10.70
2022-12-31T21:32:51.474Z,6.40
2022-12-31T21:38:12.925Z,7.40
2022-12-31T21:40:42.216Z,5.00
2022-12-31T21:43:11.998Z,3.90
2022-12-31T21:45:41.585Z,3.90
2022-12-31T21:48:21.760Z,3.10
2022-12-31T21:51:10.252Z,3.50
2022-12-31T21:53:39.229Z,3.60
2022-12-31T21:56:09.629Z,3.40
2022-12-31T21:58:44.990Z,3.70
2022-12-31T22:01:39.458Z,3.90
2022-12-31T22:04:35.352Z,3.30
2022-12-31T22:07:00.150Z,3.20
2022-12-31T22:09:28.851Z,3.20
2022-12-31T22:11:57.558Z,3.40
2022-12-31T22:14:26.493Z,3.40
2022-12-31T22:16:55.291Z,3.00
2022-12-31T22:19:25.033Z,3.30
2022-12-31T22:21:53.926Z,5.40
2022-12-31T22:24:22.726Z,6.20
2022-12-31T22:26:52.528Z,7.30
2022-12-31T22:29:24.068Z,4.50
2022-12-31T22:31:57.998Z,3.90
2022-12-31T22:34:32.937Z,3.90
2022-12-31T22:37:14.389Z,3.90
2022-12-31T22:39:51.877Z,3.40
2022-12-31T22:42:20.936Z,3.60
2022-12-31T22:44:50.442Z,5.00
2022-12-31T22:47:19.495Z,4.90
2022-12-31T22:49:48.325Z,4.20
2022-12-31T22:52:18.303Z,7.00
2022-12-31T22:57:20.007Z,4.00
2022-12-31T22:59:51.738Z,15.00
2022-12-31T23:04:49.400Z,14.50
2022-12-31T23:07:18.683Z,14.90
2022-12-31T23:10:28.939Z,7.70
2022-12-31T23:13:19.302Z,7.30
2022-12-31T23:16:08.036Z,11.70
2022-12-31T23:18:59.215Z,10.00
2022-12-31T23:21:51.127Z,11.90
2022-12-31T23:24:26.118Z,8.30
2022-12-31T23:26:58.905Z,13.80
2022-12-31T23:29:28.636Z,14.00
2022-12-31T23:31:57.483Z,15.90
2022-12-31T23:34:26.115Z,20.00
2022-12-31T23:36:55.753Z,6.10
2022-12-31T23:39:24.763Z,8.00
2022-12-31T23:41:53.502Z,11.00
2022-12-31T23:44:22.746Z,4.90
2022-12-31T23:46:52.295Z,9.40
2022-12-31T23:49:21.213Z,5.30
2022-12-31T23:51:51.350Z,8.30
2022-12-31T23:56:50.117Z,12.00
2022-12-31T23:59:19.508Z,14.40
